createdAt,value
2023-03-08T00:04:29.015Z,7.90
2023-03-08T00:10:37.462Z,5.90
2023-03-08T00:16:43.543Z,5.57
2023-03-08T00:22:51.635Z,7.40
2023-03-08T00:28:54.450Z,7.47
2023-03-08T00:35:06.495Z,7.60
2023-03-08T00:41:37.636Z,5.07
2023-03-08T00:47:49.297Z,5.27
2023-03-08T00:54:02.230Z,9.67
2023-03-08T01:00:08.513Z,5.53
2023-03-08T01:06:15.086Z,6.07
2023-03-08T01:12:21.802Z,4.97
2023-03-08T01:18:27.396Z,5.60
2023-03-08T01:24:32.826Z,7.83
2023-03-08T01:30:35.702Z,7.27
2023-03-08T01:36:41.106Z,5.30
2023-03-08T01:42:44.182Z,5.20
2023-03-08T01:48:59.257Z,7.57
2023-03-08T01:55:10.111Z,4.40
2023-03-08T02:01:14.420Z,10.23
2023-03-08T02:07:24.938Z,7.40
2023-03-08T02:13:31.202Z,7.40
2023-03-08T02:19:45.046Z,5.30
2023-03-08T02:26:04.402Z,5.70
2023-03-08T02:32:08.066Z,6.10
2023-03-08T02:38:25.453Z,10.57
2023-03-08T02:44:30.929Z,13.57
2023-03-08T02:50:36.987Z,7.03
2023-03-08T02:56:39.842Z,6.67
2023-03-08T03:02:48.444Z,11.90
2023-03-08T03:08:50.391Z,12.03
2023-03-08T03:14:52.220Z,9.20
2023-03-08T03:27:09.840Z,13.10
2023-03-08T03:33:11.744Z,15.13
2023-03-08T03:39:13.839Z,16.40
2023-03-08T03:45:15.832Z,15.77
2023-03-08T03:51:21.008Z,14.87
2023-03-08T03:57:22.984Z,15.70
2023-03-08T04:03:25.361Z,15.40
2023-03-08T04:09:27.352Z,16.47
2023-03-08T04:15:29.495Z,18.07
2023-03-08T04:21:32.089Z,15.40
2023-03-08T04:27:33.958Z,19.40
2023-03-08T04:33:35.826Z,16.40
2023-03-08T04:39:37.772Z,15.07
2023-03-08T04:45:39.669Z,13.73
2023-03-08T04:51:41.539Z,19.93
2023-03-08T04:57:43.510Z,13.10
2023-03-08T05:03:46.796Z,14.37
2023-03-08T05:09:48.685Z,14.87
2023-03-08T05:15:50.572Z,16.93
2023-03-08T05:21:52.542Z,13.60
2023-03-08T05:27:54.471Z,15.63
2023-03-08T05:33:56.344Z,15.60
2023-03-08T05:39:58.230Z,18.97
2023-03-08T05:46:07.367Z,13.13
2023-03-08T05:52:09.349Z,15.40
2023-03-08T05:58:11.286Z,12.60
2023-03-08T06:04:13.171Z,15.17
2023-03-08T06:10:16.802Z,14.10
2023-03-08T06:16:18.783Z,12.37
2023-03-08T06:22:20.772Z,15.83
2023-03-08T06:28:25.675Z,15.10
2023-03-08T06:34:27.601Z,14.13
2023-03-08T06:40:29.520Z,16.80
2023-03-08T06:46:31.430Z,15.60
2023-03-08T06:52:37.606Z,16.67
2023-03-08T06:58:39.590Z,12.60
2023-03-08T07:04:41.550Z,16.23
2023-03-08T07:10:43.450Z,14.60
2023-03-08T07:16:45.385Z,15.80
2023-03-08T07:22:47.896Z,14.47
2023-03-08T07:28:51.305Z,13.30
2023-03-08T07:34:53.187Z,13.40
2023-03-08T07:40:56.815Z,21.10
2023-03-08T07:46:58.732Z,14.03
2023-03-08T07:53:00.885Z,14.17
2023-03-08T07:59:02.804Z,11.50
2023-03-08T08:05:06.102Z,10.73
2023-03-08T08:11:16.682Z,11.33
2023-03-08T08:17:22.322Z,14.43
2023-03-08T08:23:24.226Z,14.10
2023-03-08T08:29:26.140Z,11.40
2023-03-08T08:35:42.148Z,12.70
2023-03-08T08:41:44.810Z,10.90
2023-03-08T08:47:46.669Z,16.77
2023-03-08T08:53:48.642Z,11.53
2023-03-08T08:59:50.515Z,11.00
2023-03-08T09:05:52.408Z,13.63
2023-03-08T09:11:55.922Z,12.70
2023-03-08T09:17:58.370Z,10.40
2023-03-08T09:24:03.808Z,11.83
2023-03-08T09:30:15.966Z,11.90
2023-03-08T09:36:18.666Z,8.47
2023-03-08T09:42:29.555Z,10.50
2023-03-08T09:48:32.149Z,8.47
2023-03-08T09:54:38.272Z,8.50
2023-03-08T10:00:41.358Z,7.93
2023-03-08T10:07:18.317Z,7.90
2023-03-08T10:13:35.895Z,8.70
2023-03-08T10:19:46.681Z,10.27
2023-03-08T10:25:50.759Z,6.20
2023-03-08T10:31:52.657Z,6.80
2023-03-08T10:37:54.539Z,7.30
2023-03-08T10:43:57.360Z,6.67
2023-03-08T10:50:06.664Z,4.80
2023-03-08T10:56:34.891Z,4.43
2023-03-08T11:02:36.818Z,4.27
2023-03-08T11:08:55.840Z,5.67
2023-03-08T11:14:57.824Z,4.97
2023-03-08T11:21:24.263Z,5.30
2023-03-08T11:27:50.345Z,5.70
2023-03-08T11:34:24.375Z,6.23
2023-03-08T11:41:05.756Z,5.50
2023-03-08T11:47:25.525Z,4.57
2023-03-08T11:54:22.327Z,4.57
2023-03-08T12:00:40.159Z,4.43
2023-03-08T12:06:44.044Z,3.53
2023-03-08T12:13:16.948Z,2.87
2023-03-08T12:19:21.443Z,2.60
2023-03-08T12:25:40.779Z,3.57
2023-03-08T12:31:47.335Z,3.60
2023-03-08T12:38:04.280Z,3.73
2023-03-08T12:44:26.828Z,3.27
2023-03-08T12:50:30.488Z,3.30
2023-03-08T12:56:52.243Z,3.97
2023-03-08T13:03:04.952Z,3.80
2023-03-08T13:09:35.594Z,3.40
2023-03-08T13:15:39.343Z,3.57
2023-03-08T13:22:06.006Z,3.23
2023-03-08T13:28:16.943Z,2.60
2023-03-08T13:34:32.365Z,3.50
2023-03-08T13:40:34.640Z,3.57
2023-03-08T13:46:37.682Z,3.43
2023-03-08T13:52:39.630Z,4.50
2023-03-08T13:58:46.721Z,3.73
2023-03-08T14:04:48.840Z,3.73
2023-03-08T14:11:08.192Z,3.83
2023-03-08T14:17:30.698Z,4.37
2023-03-08T14:23:39.921Z,3.83
2023-03-08T14:29:44.239Z,3.77
2023-03-08T14:36:00.138Z,3.90
2023-03-08T14:42:34.062Z,4.67
2023-03-08T14:48:38.404Z,4.93
2023-03-08T14:54:40.402Z,5.40
2023-03-08T15:00:58.085Z,6.03
2023-03-08T15:06:59.988Z,4.97
2023-03-08T15:13:01.885Z,5.10
2023-03-08T15:19:04.224Z,5.43
2023-03-08T15:25:28.370Z,6.97
2023-03-08T15:31:31.451Z,5.83
2023-03-08T15:37:33.418Z,5.77
2023-03-08T15:43:35.334Z,4.93
2023-03-08T15:49:37.232Z,4.23
2023-03-08T15:55:40.155Z,4.50
2023-03-08T16:01:42.093Z,5.70
2023-03-08T16:07:44.107Z,5.13
2023-03-08T16:13:48.988Z,5.67
2023-03-08T16:19:50.891Z,7.80
2023-03-08T16:26:19.032Z,8.10
2023-03-08T16:32:21.392Z,6.40
2023-03-08T16:38:24.163Z,6.77
2023-03-08T16:44:30.851Z,8.00
2023-03-08T16:50:32.785Z,6.23
2023-03-08T16:56:34.921Z,6.67
2023-03-08T17:02:36.915Z,9.53
2023-03-08T17:08:39.309Z,6.50
2023-03-08T17:14:41.292Z,6.93
2023-03-08T17:20:43.653Z,6.43
2023-03-08T17:26:50.137Z,12.57
2023-03-08T17:32:52.216Z,8.07
2023-03-08T17:38:55.416Z,8.00
2023-03-08T17:44:58.033Z,8.53
2023-03-08T17:51:09.673Z,9.17
2023-03-08T17:57:11.602Z,7.77
2023-03-08T18:03:13.503Z,9.50
2023-03-08T18:09:16.782Z,7.87
2023-03-08T18:15:18.817Z,8.67
2023-03-08T18:21:21.440Z,7.93
2023-03-08T18:27:23.341Z,11.20
2023-03-08T18:33:25.594Z,13.90
2023-03-08T18:39:27.528Z,17.57
2023-03-08T18:45:29.781Z,15.53
2023-03-08T18:51:34.018Z,12.43
2023-03-08T18:57:36.852Z,13.03
2023-03-08T19:03:40.735Z,14.10
2023-03-08T19:09:44.825Z,14.97
2023-03-08T19:15:46.753Z,15.23
2023-03-08T19:21:49.234Z,15.13
2023-03-08T19:27:51.207Z,14.63
2023-03-08T19:33:53.351Z,14.10
2023-03-08T19:39:55.275Z,16.07
2023-03-08T19:46:00.082Z,15.40
2023-03-08T19:52:05.316Z,15.00
2023-03-08T19:58:08.318Z,14.90
2023-03-08T20:04:11.450Z,13.80
2023-03-08T20:10:17.919Z,13.73
2023-03-08T20:16:23.155Z,16.23
2023-03-08T20:22:25.043Z,17.20
2023-03-08T20:28:27.668Z,19.67
2023-03-08T20:34:29.648Z,19.70
2023-03-08T20:40:31.556Z,20.30
2023-03-08T20:46:33.966Z,17.10
2023-03-08T20:52:36.340Z,15.80
2023-03-08T20:58:38.480Z,14.77
2023-03-08T21:04:40.396Z,17.07
2023-03-08T21:10:42.482Z,16.57
2023-03-08T21:16:44.439Z,82.37
2023-03-08T21:22:46.506Z,23.63
2023-03-08T21:28:48.651Z,35.97
2023-03-08T21:34:50.613Z,30.77
2023-03-08T21:40:52.519Z,25.47
2023-03-08T21:46:55.469Z,22.57
2023-03-08T21:52:57.976Z,20.87
2023-03-08T21:58:59.905Z,14.20
2023-03-08T22:05:04.092Z,22.27
2023-03-08T22:11:06.188Z,16.00
2023-03-08T22:17:08.116Z,17.80
2023-03-08T22:23:10.103Z,14.10
2023-03-08T22:29:12.094Z,17.43
2023-03-08T22:35:14.687Z,15.20
2023-03-08T22:41:21.116Z,13.37
2023-03-08T22:47:23.067Z,15.13
2023-03-08T22:53:24.977Z,14.80
2023-03-08T22:59:26.920Z,16.63
2023-03-08T23:05:28.839Z,17.40
2023-03-08T23:11:31.174Z,15.77
2023-03-08T23:17:33.532Z,14.67
2023-03-08T23:23:36.490Z,13.93
2023-03-08T23:29:38.447Z,12.90
2023-03-08T23:35:40.443Z,13.20
2023-03-08T23:41:42.378Z,14.67
2023-03-08T23:47:44.300Z,10.87
2023-03-08T23:53:50.507Z,13.23
2023-03-08T23:59:52.411Z,11.07
